Time;durP1;ratioP1;P1;durP2;ratioP2;P2;SDS_P1;SDS_P2;PMS_P1;PMS_P2;Temp;Humidity;BMP_temperature;BMP_pressure;BME280_temperature;BME280_humidity;BME280_pressure;Samples;Min_cycle;Max_cycle;Signal;HPM_P1;HPM_P2
2021/01/26 00:01:36;;;;;;;;;;;3.10;99.90;;;;;;5118163;27;19919;-86
2021/01/26 00:04:01;;;;;;;;;;;3.10;99.90;;;;;;5138128;27;19916;-85
2021/01/26 00:06:32;;;;;;;;;;;3.00;99.90;;;;;;5119090;27;20005;-85
2021/01/26 00:09:03;;;;;;;;;;;3.00;99.90;;;;;;5137493;27;19915;-85
2021/01/26 00:11:35;;;;;;;;;;;2.90;99.90;;;;;;5137905;27;19956;-85
2021/01/26 00:14:10;;;;;;;;;;;2.90;99.90;;;;;;5137277;27;19908;-84
2021/01/26 00:16:46;;;;;;;;;;;3.00;99.90;;;;;;5118996;27;19956;-85
2021/01/26 00:19:19;;;;;;;;;;;3.10;99.90;;;;;;5118772;27;19907;-85
2021/01/26 00:21:55;;;;;;;;;;;3.20;99.90;;;;;;5118195;27;19911;-84
2021/01/26 00:24:26;;;;;;;;;;;3.20;99.90;;;;;;5118397;27;19907;-84
2021/01/26 00:26:54;;;;;;;;;;;3.20;99.90;;;;;;5117993;27;19926;-84
2021/01/26 00:29:25;;;;;;;;;;;3.20;99.90;;;;;;5118610;27;20356;-84
2021/01/26 00:31:56;;;;;;;;;;;3.20;99.90;;;;;;5118124;27;19912;-85
2021/01/26 00:34:30;;;;;;;;;;;3.20;99.90;;;;;;5118590;27;19998;-85
2021/01/26 00:37:01;;;;;;;;;;;3.20;99.90;;;;;;5118858;27;19911;-85
2021/01/26 00:39:39;;;;;;;;;;;3.10;99.90;;;;;;5118926;27;19908;-85
2021/01/26 00:42:07;;;;;;;;;;;3.10;99.90;;;;;;5118507;27;19913;-85
2021/01/26 00:44:33;;;;;;;;;;;3.10;99.90;;;;;;5117895;27;20390;-85
2021/01/26 00:47:02;;;;;;;;;;;3.10;99.90;;;;;;5118036;27;19946;-85
2021/01/26 00:49:30;;;;;;;;;;;3.10;99.90;;;;;;5136279;27;19911;-84
2021/01/26 00:51:56;;;;;;;;;;;3.10;99.90;;;;;;5117765;27;19956;-85
2021/01/26 00:54:26;;;;;;;;;;;3.00;99.90;;;;;;5118712;27;19911;-84
2021/01/26 00:56:57;;;;;;;;;;;2.90;99.90;;;;;;5119492;27;19911;-84
2021/01/26 00:59:26;;;;;;;;;;;2.90;99.90;;;;;;5119030;27;20423;-85
2021/01/26 01:01:54;;;;;;;;;;;2.80;99.90;;;;;;5118874;27;19923;-85
2021/01/26 01:04:26;;;;;;;;;;;2.90;99.90;;;;;;5136499;27;19975;-84
2021/01/26 01:06:52;;;;;;;;;;;2.90;99.90;;;;;;5124693;27;19907;-85
2021/01/26 01:09:23;;;;;;;;;;;2.90;99.90;;;;;;5121429;27;19911;-84
2021/01/26 01:11:49;;;;;;;;;;;2.90;99.90;;;;;;5136633;27;19907;-84
2021/01/26 01:14:17;;;;;;;;;;;2.90;99.90;;;;;;5118459;27;19913;-84
2021/01/26 01:16:51;;;;;;;;;;;2.90;99.90;;;;;;5136143;27;19994;-84
2021/01/26 01:19:25;;;;;;;;;;;2.80;99.90;;;;;;5136530;27;19953;-85
2021/01/26 01:21:57;;;;;;;;;;;2.70;99.90;;;;;;5117837;27;20019;-85
2021/01/26 01:24:23;;;;;;;;;;;2.70;99.90;;;;;;5118828;27;19918;-85
2021/01/26 01:26:51;;;;;;;;;;;2.60;99.90;;;;;;5118589;27;19908;-86
2021/01/26 01:29:29;;;;;;;;;;;2.60;99.90;;;;;;5136944;27;20006;-85
2021/01/26 01:32:00;;;;;;;;;;;2.60;99.90;;;;;;5118523;27;19998;-85
2021/01/26 01:34:26;;;;;;;;;;;2.60;99.90;;;;;;5117957;27;19908;-86
2021/01/26 01:36:59;;;;;;;;;;;2.70;99.90;;;;;;5117260;27;19960;-85
2021/01/26 01:39:27;;;;;;;;;;;2.70;99.90;;;;;;5118170;27;20284;-84
2021/01/26 01:41:56;;;;;;;;;;;2.80;99.90;;;;;;5117790;27;19907;-85
2021/01/26 01:44:22;;;;;;;;;;;2.80;99.90;;;;;;5117857;27;19912;-85
2021/01/26 01:46:59;;;;;;;;;;;2.90;99.90;;;;;;5117542;27;19908;-84
2021/01/26 01:49:38;;;;;;;;;;;3.00;99.90;;;;;;5117292;27;19915;-84
2021/01/26 01:52:12;;;;;;;;;;;3.10;99.90;;;;;;5117303;27;19914;-84
2021/01/26 01:54:39;;;;;;;;;;;3.10;99.90;;;;;;5117739;28;20376;-84
2021/01/26 01:57:16;;;;;;;;;;;3.00;99.90;;;;;;5118271;27;19908;-84
2021/01/26 01:59:45;;;;;;;;;;;3.00;99.90;;;;;;5117379;28;20027;-84
2021/01/26 02:02:12;;;;;;;;;;;3.00;99.90;;;;;;5117207;28;19923;-84
2021/01/26 02:04:40;;;;;;;;;;;2.90;99.90;;;;;;5118361;28;20011;-84
2021/01/26 02:07:10;;;;;;;;;;;2.90;99.90;;;;;;5118162;28;19911;-84
2021/01/26 02:09:39;;;;;;;;;;;2.90;99.90;;;;;;5117459;28;19995;-84
2021/01/26 02:12:06;;;;;;;;;;;3.00;99.90;;;;;;5117875;28;19914;-84
2021/01/26 02:14:34;;;;;;;;;;;3.00;99.90;;;;;;5116982;28;19908;-84
2021/01/26 02:17:03;;;;;;;;;;;3.00;99.90;;;;;;5136065;28;20378;-84
2021/01/26 02:19:50;;;;;;;;;;;3.10;99.90;;;;;;5117110;28;19907;-84
2021/01/26 02:22:38;;;;;;;;;;;3.10;99.90;;;;;;5116462;28;19908;-84
2021/01/26 02:25:06;;;;;;;;;;;3.20;99.90;;;;;;5137288;27;19952;-85
2021/01/26 02:27:51;;;;;;;;;;;3.10;99.90;;;;;;5139129;27;19937;-84
2021/01/26 02:30:23;;;;;;;;;;;3.00;99.90;;;;;;5121400;27;19911;-84
2021/01/26 02:33:08;;;;;;;;;;;3.00;99.90;;;;;;5139117;27;20394;-84
2021/01/26 02:35:52;;;;;;;;;;;3.00;99.90;;;;;;5120605;27;19914;-83
2021/01/26 02:38:30;;;;;;;;;;;2.90;99.90;;;;;;5120588;27;19908;-83
2021/01/26 02:41:05;;;;;;;;;;;2.90;99.90;;;;;;5120455;27;19907;-83
2021/01/26 02:43:49;;;;;;;;;;;2.90;99.90;;;;;;5120407;27;19907;-83
2021/01/26 02:46:18;;;;;;;;;;;2.80;99.90;;;;;;5121326;27;20332;-85
2021/01/26 02:48:50;;;;;;;;;;;2.80;99.90;;;;;;5135631;27;19919;-84
2021/01/26 02:51:24;;;;;;;;;;;2.80;99.90;;;;;;5121122;27;19908;-83
2021/01/26 02:54:08;;;;;;;;;;;2.80;99.90;;;;;;5120502;27;19908;-84
2021/01/26 02:56:40;;;;;;;;;;;2.70;99.90;;;;;;5121426;27;19984;-84
2021/01/26 02:59:41;;;;;;;;;;;2.90;99.90;;;;;;5120615;27;20272;-84
2021/01/26 03:02:12;;;;;;;;;;;3.00;99.90;;;;;;5067177;28;19958;-83
2021/01/26 03:04:44;;;;;;;;;;;3.00;99.90;;;;;;5099469;28;19912;-84
2021/01/26 03:07:13;;;;;;;;;;;3.10;99.90;;;;;;5117035;28;20314;-84
2021/01/26 03:09:44;;;;;;;;;;;3.10;99.90;;;;;;5099826;28;20356;-84
2021/01/26 03:12:14;;;;;;;;;;;3.20;99.90;;;;;;5117543;28;19908;-84
2021/01/26 03:14:46;;;;;;;;;;;3.20;99.90;;;;;;5099056;28;19912;-83
2021/01/26 03:17:17;;;;;;;;;;;3.30;99.90;;;;;;5099571;28;20368;-84
2021/01/26 03:19:45;;;;;;;;;;;3.30;99.90;;;;;;5099185;28;20379;-84
2021/01/26 03:22:14;;;;;;;;;;;3.30;99.90;;;;;;5099359;28;20478;-84
2021/01/26 03:24:44;;;;;;;;;;;3.30;99.90;;;;;;5099085;28;19908;-84
2021/01/26 03:27:12;;;;;;;;;;;3.30;99.90;;;;;;5117135;28;19912;-83
2021/01/26 03:29:40;;;;;;;;;;;3.30;99.90;;;;;;5098820;28;20046;-83
2021/01/26 03:32:07;;;;;;;;;;;3.20;99.90;;;;;;5099345;28;19908;-84
2021/01/26 03:34:36;;;;;;;;;;;3.10;99.90;;;;;;5098997;28;19919;-84
2021/01/26 03:37:02;;;;;;;;;;;3.00;99.90;;;;;;5098098;28;20353;-84
2021/01/26 03:39:28;;;;;;;;;;;3.00;99.90;;;;;;5117242;28;19907;-84
2021/01/26 03:41:56;;;;;;;;;;;2.80;99.90;;;;;;5117130;28;19908;-84
2021/01/26 03:44:24;;;;;;;;;;;2.80;99.90;;;;;;5099042;28;19908;-84
2021/01/26 03:46:53;;;;;;;;;;;2.70;99.90;;;;;;5116581;28;19908;-84
2021/01/26 03:49:37;;;;;;;;;;;2.60;99.90;;;;;;5116809;28;19915;-84
2021/01/26 03:52:15;;;;;;;;;;;2.60;99.90;;;;;;5098643;28;20037;-84
2021/01/26 03:55:01;;;;;;;;;;;2.60;99.90;;;;;;5098874;28;19935;-84
2021/01/26 03:57:48;;;;;;;;;;;2.60;99.90;;;;;;5077582;28;19908;-84
2021/01/26 04:00:32;;;;;;;;;;;2.60;99.90;;;;;;5098559;28;19933;-84
2021/01/26 04:03:16;;;;;;;;;;;2.70;99.90;;;;;;5137192;27;19919;-84
2021/01/26 04:05:53;;;;;;;;;;;2.80;99.90;;;;;;5118962;27;19914;-84
2021/01/26 04:08:24;;;;;;;;;;;2.90;99.90;;;;;;5118535;27;20371;-83
2021/01/26 04:10:50;;;;;;;;;;;3.00;99.90;;;;;;5118651;27;20356;-84
2021/01/26 04:13:17;;;;;;;;;;;2.90;99.90;;;;;;5118214;27;19942;-84
2021/01/26 04:16:05;;;;;;;;;;;2.90;99.90;;;;;;5133653;27;19922;-84
2021/01/26 04:18:39;;;;;;;;;;;3.00;99.90;;;;;;5118802;27;19907;-84
2021/01/26 04:21:07;;;;;;;;;;;3.00;99.90;;;;;;5118834;27;20379;-83
2021/01/26 04:23:40;;;;;;;;;;;3.00;99.90;;;;;;5118467;27;19915;-83
2021/01/26 04:26:18;;;;;;;;;;;3.10;99.90;;;;;;5118429;27;19930;-83
2021/01/26 04:28:48;;;;;;;;;;;3.10;99.90;;;;;;5125664;27;19979;-82
2021/01/26 04:31:14;;;;;;;;;;;3.10;99.90;;;;;;5126843;27;20014;-83
2021/01/26 04:33:40;;;;;;;;;;;3.20;99.90;;;;;;5118452;27;19907;-83
2021/01/26 04:36:09;;;;;;;;;;;3.20;99.90;;;;;;5118218;27;19915;-83
2021/01/26 04:38:40;;;;;;;;;;;3.20;99.90;;;;;;5118297;27;19907;-83
2021/01/26 04:41:11;;;;;;;;;;;3.20;99.90;;;;;;5117973;27;20356;-83
2021/01/26 04:43:50;;;;;;;;;;;3.20;99.90;;;;;;5118482;27;19914;-83
2021/01/26 04:46:28;;;;;;;;;;;3.20;99.90;;;;;;5117990;27;19907;-83
2021/01/26 04:48:59;;;;;;;;;;;3.20;99.90;;;;;;5117573;27;19916;-84
2021/01/26 04:51:42;;;;;;;;;;;3.20;99.90;;;;;;5117984;27;20283;-83
2021/01/26 04:54:10;;;;;;;;;;;3.20;99.90;;;;;;5117670;27;19908;-83
2021/01/26 04:56:39;;;;;;;;;;;3.20;99.90;;;;;;5136105;27;19935;-83
2021/01/26 04:59:21;;;;;;;;;;;3.20;99.90;;;;;;5117643;27;19954;-85
2021/01/26 05:01:50;;;;;;;;;;;3.20;99.90;;;;;;5106909;28;19973;-84
2021/01/26 05:04:27;;;;;;;;;;;3.10;99.90;;;;;;5097075;28;20041;-84
2021/01/26 05:07:03;;;;;;;;;;;3.20;99.90;;;;;;5115240;28;19915;-84
2021/01/26 05:09:49;;;;;;;;;;;3.10;99.90;;;;;;5097354;28;19912;-84
2021/01/26 05:12:23;;;;;;;;;;;3.20;99.90;;;;;;5096082;28;19907;-84
2021/01/26 05:14:51;;;;;;;;;;;3.20;99.90;;;;;;5114971;28;19908;-83
2021/01/26 05:17:16;;;;;;;;;;;3.30;99.90;;;;;;5096881;28;19932;-84
2021/01/26 05:19:47;;;;;;;;;;;3.40;99.90;;;;;;5096642;28;19915;-84
2021/01/26 05:22:24;;;;;;;;;;;3.40;99.90;;;;;;5096915;28;19943;-83
2021/01/26 05:25:13;;;;;;;;;;;3.50;99.90;;;;;;5096763;28;19912;-82
2021/01/26 05:27:48;;;;;;;;;;;3.50;99.90;;;;;;5085669;28;19918;-81
2021/01/26 05:30:26;;;;;;;;;;;3.60;99.90;;;;;;5096467;28;19911;-82
2021/01/26 05:32:55;;;;;;;;;;;3.60;99.90;;;;;;5096099;28;20320;-82
2021/01/26 05:35:23;;;;;;;;;;;3.60;99.90;;;;;;5114706;28;19922;-82
2021/01/26 05:37:51;;;;;;;;;;;3.60;99.90;;;;;;5096307;28;19915;-82
2021/01/26 05:40:16;;;;;;;;;;;3.60;99.90;;;;;;5096830;28;19908;-82
2021/01/26 05:42:46;;;;;;;;;;;3.60;99.90;;;;;;5096532;28;19915;-82
2021/01/26 05:45:35;;;;;;;;;;;3.60;99.90;;;;;;5097245;28;19915;-83
2021/01/26 05:48:00;;;;;;;;;;;3.60;99.90;;;;;;5102318;28;19926;-83
2021/01/26 05:50:28;;;;;;;;;;;3.60;99.90;;;;;;5097303;28;20352;-83
2021/01/26 05:52:56;;;;;;;;;;;3.60;99.90;;;;;;5096835;28;19961;-83
2021/01/26 05:55:27;;;;;;;;;;;3.70;99.90;;;;;;5096467;28;19918;-82
2021/01/26 05:58:04;;;;;;;;;;;3.70;99.90;;;;;;5096830;28;20356;-82
2021/01/26 06:00:30;;;;;;;;;;;3.60;99.90;;;;;;5096363;28;19993;-82
2021/01/26 06:03:17;;;;;;;;;;;3.60;99.90;;;;;;5135442;27;19919;-82
2021/01/26 06:06:00;;;;;;;;;;;3.60;99.90;;;;;;5116901;28;20279;-82
2021/01/26 06:08:28;;;;;;;;;;;3.60;99.90;;;;;;5117035;28;20375;-83
2021/01/26 06:10:57;;;;;;;;;;;3.60;99.90;;;;;;5127070;28;19967;-83
2021/01/26 06:13:27;;;;;;;;;;;3.60;99.90;;;;;;5140834;28;19908;-82
2021/01/26 06:16:15;;;;;;;;;;;3.60;99.90;;;;;;5117077;28;20007;-82
2021/01/26 06:19:14;;;;;;;;;;;3.60;99.90;;;;;;5134950;28;19907;-82
2021/01/26 06:21:50;;;;;;;;;;;3.60;99.90;;;;;;5116994;28;19951;-82
2021/01/26 06:24:17;;;;;;;;;;;3.50;99.90;;;;;;5128707;27;19936;-82
2021/01/26 06:26:51;;;;;;;;;;;3.40;99.90;;;;;;5136941;27;19953;-82
2021/01/26 06:29:16;;;;;;;;;;;3.40;99.90;;;;;;5135606;27;19915;-83
2021/01/26 06:31:47;;;;;;;;;;;3.40;99.90;;;;;;5136598;27;19914;-83
2021/01/26 06:34:13;;;;;;;;;;;3.40;99.90;;;;;;5136553;27;19956;-84
2021/01/26 06:36:45;;;;;;;;;;;3.40;99.90;;;;;;5136507;27;19907;-83
2021/01/26 06:39:14;;;;;;;;;;;3.50;99.90;;;;;;5155072;27;19975;-83
2021/01/26 06:41:54;;;;;;;;;;;3.50;99.90;;;;;;5152909;27;19915;-85
2021/01/26 06:44:29;;;;;;;;;;;3.60;99.90;;;;;;5118833;27;20335;-84
2021/01/26 06:47:12;;;;;;;;;;;3.60;99.90;;;;;;5150462;27;19913;-85
2021/01/26 06:49:46;;;;;;;;;;;3.60;99.90;;;;;;5128646;27;19922;-85
2021/01/26 06:52:12;;;;;;;;;;;3.60;99.90;;;;;;5123185;27;19911;-84
2021/01/26 06:54:56;;;;;;;;;;;3.60;99.90;;;;;;5155392;27;20363;-84
2021/01/26 06:57:30;;;;;;;;;;;3.70;99.90;;;;;;5154829;27;19915;-85
2021/01/26 07:00:02;;;;;;;;;;;3.60;99.90;;;;;;5136992;27;19918;-86
2021/01/26 07:02:46;;;;;;;;;;;3.60;99.90;;;;;;5136736;27;20351;-85
2021/01/26 07:05:32;;;;;;;;;;;3.60;99.90;;;;;;5137880;27;19911;-85
2021/01/26 07:08:19;;;;;;;;;;;3.60;99.90;;;;;;5141499;27;19922;-85
2021/01/26 07:11:04;;;;;;;;;;;3.60;99.90;;;;;;5142034;27;19952;-84
2021/01/26 07:13:41;;;;;;;;;;;3.60;99.90;;;;;;5142935;27;20001;-85
2021/01/26 07:16:26;;;;;;;;;;;3.60;99.90;;;;;;5141510;27;19907;-84
2021/01/26 07:19:10;;;;;;;;;;;3.60;99.90;;;;;;5140829;27;19911;-86
2021/01/26 07:21:48;;;;;;;;;;;3.70;99.90;;;;;;5132745;27;19907;-83
2021/01/26 07:24:32;;;;;;;;;;;3.70;99.90;;;;;;5138050;27;19951;-84
2021/01/26 07:27:16;;;;;;;;;;;3.70;99.90;;;;;;5120064;27;20002;-84
2021/01/26 07:29:45;;;;;;;;;;;3.70;99.90;;;;;;5120158;27;20372;-84
2021/01/26 07:32:30;;;;;;;;;;;3.70;99.90;;;;;;5120660;27;19943;-83
2021/01/26 07:35:02;;;;;;;;;;;3.70;99.90;;;;;;5121891;27;19908;-84
2021/01/26 07:37:32;;;;;;;;;;;3.60;99.90;;;;;;5159683;27;19920;-85
2021/01/26 07:40:03;;;;;;;;;;;3.60;99.90;;;;;;5141320;27;19907;-85
2021/01/26 07:42:32;;;;;;;;;;;3.60;99.90;;;;;;5137503;27;20359;-85
2021/01/26 07:45:08;;;;;;;;;;;3.70;99.90;;;;;;5140472;27;19951;-85
2021/01/26 07:47:37;;;;;;;;;;;3.80;99.90;;;;;;5139704;27;20516;-84
2021/01/26 07:50:24;;;;;;;;;;;3.80;99.90;;;;;;5139870;27;19911;-85
2021/01/26 07:52:53;;;;;;;;;;;3.70;99.90;;;;;;5146795;27;20382;-85
2021/01/26 07:55:21;;;;;;;;;;;3.70;99.90;;;;;;5146461;27;19907;-84
2021/01/26 07:57:51;;;;;;;;;;;3.70;99.90;;;;;;5139791;27;20276;-84
2021/01/26 08:00:25;;;;;;;;;;;3.70;99.90;;;;;;5139943;27;19914;-85
2021/01/26 08:02:53;;;;;;;;;;;3.70;99.90;;;;;;5157704;27;20317;-84
2021/01/26 08:05:36;;;;;;;;;;;3.70;99.90;;;;;;5127285;27;19911;-85
2021/01/26 08:08:03;;;;;;;;;;;3.70;99.90;;;;;;5135939;27;19919;-85
2021/01/26 08:10:30;;;;;;;;;;;3.80;99.90;;;;;;5136663;27;19964;-84
2021/01/26 08:12:56;;;;;;;;;;;3.70;99.90;;;;;;5119631;27;19935;-83
2021/01/26 08:15:29;;;;;;;;;;;3.70;99.90;;;;;;5146208;27;19911;-84
2021/01/26 08:17:55;;;;;;;;;;;3.60;99.90;;;;;;5140088;27;20006;-84
2021/01/26 08:20:20;;;;;;;;;;;3.50;99.90;;;;;;5139905;27;19961;-85
2021/01/26 08:23:06;;;;;;;;;;;3.50;99.90;;;;;;5138898;27;19907;-85
2021/01/26 08:25:42;;;;;;;;;;;3.50;99.90;;;;;;5139788;27;19998;-85
2021/01/26 08:28:09;;;;;;;;;;;3.40;99.90;;;;;;5139419;27;19923;-85
2021/01/26 08:30:34;;;;;;;;;;;3.50;99.90;;;;;;5158081;27;19907;-85
2021/01/26 08:33:06;;;;;;;;;;;3.50;99.90;;;;;;5139404;27;19913;-86
2021/01/26 08:35:33;;;;;;;;;;;3.50;99.90;;;;;;5157905;27;19925;-85
2021/01/26 08:38:00;;;;;;;;;;;3.60;99.90;;;;;;5157642;27;19914;-85
2021/01/26 08:40:28;;;;;;;;;;;3.70;99.90;;;;;;5157633;27;19969;-85
2021/01/26 08:42:54;;;;;;;;;;;3.70;99.90;;;;;;5157308;27;19907;-85
2021/01/26 08:45:26;;;;;;;;;;;4.10;99.90;;;;;;5139099;27;19914;-85
2021/01/26 08:47:55;;;;;;;;;;;4.60;99.90;;;;;;5138647;27;20094;-85
2021/01/26 08:50:45;;;;;;;;;;;4.70;99.90;;;;;;5157716;27;20031;-85
2021/01/26 08:53:23;;;;;;;;;;;4.70;99.90;;;;;;5137815;27;19960;-84
2021/01/26 08:55:51;;;;;;;;;;;4.80;99.90;;;;;;5157086;27;19914;-85
2021/01/26 08:58:36;;;;;;;;;;;4.80;99.90;;;;;;5156761;27;19914;-85
2021/01/26 09:01:02;;;;;;;;;;;4.80;99.90;;;;;;5138660;27;19923;-86
2021/01/26 09:03:38;;;;;;;;;;;4.80;99.90;;;;;;5138575;27;19911;-85
2021/01/26 09:06:04;;;;;;;;;;;4.80;99.90;;;;;;5138534;27;19946;-85
2021/01/26 09:08:39;;;;;;;;;;;4.70;99.90;;;;;;5156922;27;19972;-85
2021/01/26 09:11:07;;;;;;;;;;;4.80;99.90;;;;;;5138546;27;20367;-85
2021/01/26 09:13:34;;;;;;;;;;;4.80;99.90;;;;;;5138178;27;19914;-85
2021/01/26 09:16:29;;;;;;;;;;;4.90;99.90;;;;;;5131407;27;19996;-84
2021/01/26 09:19:01;;;;;;;;;;;5.00;99.90;;;;;;5134225;27;19907;-85
2021/01/26 09:21:33;;;;;;;;;;;5.10;99.90;;;;;;5089418;28;19916;-83
2021/01/26 09:23:59;;;;;;;;;;;5.10;99.90;;;;;;5086470;28;19919;-83
2021/01/26 09:26:36;;;;;;;;;;;5.20;99.90;;;;;;5063384;28;19913;-84
2021/01/26 09:29:04;;;;;;;;;;;5.40;99.90;;;;;;5069352;28;19920;-82
2021/01/26 09:31:30;;;;;;;;;;;5.50;99.90;;;;;;5075385;28;19913;-84
2021/01/26 09:34:04;;;;;;;;;;;5.60;99.90;;;;;;5069266;28;20400;-83
2021/01/26 09:36:30;;;;;;;;;;;5.60;99.90;;;;;;5076197;28;19919;-83
2021/01/26 09:39:01;;;;;;;;;;;5.60;99.90;;;;;;5072050;28;19916;-83
2021/01/26 09:41:28;;;;;;;;;;;5.70;99.90;;;;;;5070000;28;19912;-83
2021/01/26 09:44:09;;;;;;;;;;;5.70;99.90;;;;;;5074906;28;19908;-84
2021/01/26 09:46:37;;;;;;;;;;;5.80;99.90;;;;;;5091938;28;19955;-85
2021/01/26 09:49:14;;;;;;;;;;;5.80;99.90;;;;;;5071246;28;19951;-84
2021/01/26 09:52:00;;;;;;;;;;;5.80;99.90;;;;;;5092228;28;19973;-86
2021/01/26 09:54:28;;;;;;;;;;;5.80;99.90;;;;;;5066152;28;19916;-85
2021/01/26 09:56:54;;;;;;;;;;;5.80;99.90;;;;;;5081661;28;19938;-85
2021/01/26 09:59:20;;;;;;;;;;;5.80;99.90;;;;;;5118078;27;19907;-85
2021/01/26 10:01:46;;;;;;;;;;;5.80;99.90;;;;;;5155931;27;20058;-86
2021/01/26 10:04:13;;;;;;;;;;;5.80;99.90;;;;;;5119036;27;20034;-85
2021/01/26 10:06:39;;;;;;;;;;;5.80;99.90;;;;;;5137926;27;19907;-84
2021/01/26 10:09:19;;;;;;;;;;;5.80;99.90;;;;;;5136655;27;19919;-84
2021/01/26 10:11:45;;;;;;;;;;;5.90;99.90;;;;;;5137540;27;20390;-84
2021/01/26 10:14:19;;;;;;;;;;;6.00;99.90;;;;;;5138030;27;19907;-85
2021/01/26 10:16:46;;;;;;;;;;;6.20;99.90;;;;;;5137815;27;20001;-85
2021/01/26 10:19:14;;;;;;;;;;;6.40;99.90;;;;;;5137303;27;19911;-84
2021/01/26 10:21:40;;;;;;;;;;;6.80;99.90;;;;;;5136609;27;19907;-85
2021/01/26 10:24:08;;;;;;;;;;;7.30;99.90;;;;;;5156336;27;19930;-84
2021/01/26 10:26:35;;;;;;;;;;;7.50;99.90;;;;;;5156230;27;19915;-84
2021/01/26 10:29:23;;;;;;;;;;;7.60;99.90;;;;;;5155732;27;19915;-85
2021/01/26 10:31:48;;;;;;;;;;;7.80;99.90;;;;;;5137625;27;19957;-85
2021/01/26 10:34:22;;;;;;;;;;;8.00;99.90;;;;;;5137220;27;20291;-84
2021/01/26 10:36:48;;;;;;;;;;;8.30;99.90;;;;;;5155373;27;19914;-84
2021/01/26 10:39:26;;;;;;;;;;;8.60;99.90;;;;;;5154040;27;19908;-85
2021/01/26 10:42:06;;;;;;;;;;;8.70;99.90;;;;;;5116829;28;19915;-85
2021/01/26 10:44:32;;;;;;;;;;;8.80;99.90;;;;;;5116389;27;19915;-84
2021/01/26 10:46:58;;;;;;;;;;;8.70;99.90;;;;;;5138133;27;19911;-84
2021/01/26 10:49:30;;;;;;;;;;;8.80;99.90;;;;;;5120439;27;19933;-84
2021/01/26 10:51:59;;;;;;;;;;;8.70;99.90;;;;;;5120334;27;19912;-85
2021/01/26 10:54:25;;;;;;;;;;;8.70;99.90;;;;;;5137259;27;19908;-85
2021/01/26 10:56:51;;;;;;;;;;;8.70;99.90;;;;;;5137264;27;20356;-85
2021/01/26 10:59:17;;;;;;;;;;;8.60;99.90;;;;;;5137172;27;20404;-86
2021/01/26 11:01:46;;;;;;;;;;;8.50;99.90;;;;;;5148737;27;19919;-86
2021/01/26 11:04:12;;;;;;;;;;;8.50;99.90;;;;;;5137840;27;19916;-84
2021/01/26 11:06:41;;;;;;;;;;;8.40;99.90;;;;;;5159168;27;20256;-84
2021/01/26 11:09:08;;;;;;;;;;;8.40;99.90;;;;;;5140939;27;19915;-84
2021/01/26 11:11:36;;;;;;;;;;;8.50;99.90;;;;;;5140129;27;19914;-85
2021/01/26 11:14:03;;;;;;;;;;;8.70;99.90;;;;;;5140255;27;19914;-86
2021/01/26 11:16:29;;;;;;;;;;;9.10;99.90;;;;;;5140583;27;19975;-85
2021/01/26 11:18:56;;;;;;;;;;;9.60;99.90;;;;;;5152275;27;19911;-84
2021/01/26 11:21:23;;;;;;;;;;;10.00;97.50;;;;;;5143066;27;19907;-84
2021/01/26 11:23:49;;;;;;;;;;;10.10;95.50;;;;;;5140898;27;20312;-85
2021/01/26 11:26:16;;;;;;;;;;;10.30;96.00;;;;;;5140116;27;19907;-86
2021/01/26 11:28:42;;;;;;;;;;;10.20;95.20;;;;;;5140391;27;19927;-85
2021/01/26 11:31:07;;;;;;;;;;;9.90;95.10;;;;;;5140642;27;20264;-85
2021/01/26 11:33:35;;;;;;;;;;;9.60;94.80;;;;;;5136736;27;19912;-85
2021/01/26 11:36:02;;;;;;;;;;;9.20;95.10;;;;;;5158312;27;19908;-85
2021/01/26 11:38:28;;;;;;;;;;;9.00;95.70;;;;;;5140064;27;19911;-85
2021/01/26 11:40:56;;;;;;;;;;;8.80;96.30;;;;;;5139449;27;20006;-85
2021/01/26 11:43:24;;;;;;;;;;;8.60;96.50;;;;;;5139864;27;20316;-84
2021/01/26 11:45:50;;;;;;;;;;;8.40;97.30;;;;;;5139780;27;20335;-85
2021/01/26 11:48:16;;;;;;;;;;;8.30;97.80;;;;;;5139804;27;20363;-84
2021/01/26 11:50:42;;;;;;;;;;;8.20;97.80;;;;;;5139442;27;19911;-86
2021/01/26 11:53:11;;;;;;;;;;;8.10;98.20;;;;;;5157901;27;19959;-86
2021/01/26 11:55:37;;;;;;;;;;;8.00;98.00;;;;;;5139299;27;19907;-85
2021/01/26 11:58:03;;;;;;;;;;;8.00;98.60;;;;;;5157180;27;19947;-85
2021/01/26 12:00:31;;;;;;;;;;;8.00;98.80;;;;;;5144369;27;20286;-84
2021/01/26 12:02:56;;;;;;;;;;;8.20;99.00;;;;;;5139968;27;19943;-83
2021/01/26 12:05:24;;;;;;;;;;;8.90;99.80;;;;;;5118382;27;20364;-83
2021/01/26 12:07:50;;;;;;;;;;;9.50;99.00;;;;;;5136805;27;19919;-85
2021/01/26 12:10:17;;;;;;;;;;;9.70;96.90;;;;;;5137030;27;19989;-84
2021/01/26 12:12:43;;;;;;;;;;;9.60;96.00;;;;;;5127554;27;19911;-84
2021/01/26 12:15:11;;;;;;;;;;;9.40;95.20;;;;;;5124965;27;19918;-83
2021/01/26 12:17:45;;;;;;;;;;;9.20;95.40;;;;;;5135687;27;19907;-84
2021/01/26 12:20:11;;;;;;;;;;;9.00;95.90;;;;;;5136137;27;19908;-83
2021/01/26 12:22:37;;;;;;;;;;;8.80;95.60;;;;;;5157456;27;19936;-83
2021/01/26 12:25:03;;;;;;;;;;;8.50;95.80;;;;;;5157114;27;19911;-85
2021/01/26 12:27:29;;;;;;;;;;;8.40;96.60;;;;;;5156946;27;19915;-84
2021/01/26 12:29:55;;;;;;;;;;;8.20;97.00;;;;;;5138598;27;19918;-83
2021/01/26 12:32:23;;;;;;;;;;;8.10;97.70;;;;;;5138559;27;19918;-84
2021/01/26 12:34:49;;;;;;;;;;;8.00;98.00;;;;;;5138777;27;19914;-85
2021/01/26 12:37:15;;;;;;;;;;;7.90;98.70;;;;;;5132053;27;19907;-85
2021/01/26 12:39:41;;;;;;;;;;;7.90;98.90;;;;;;5117954;27;19915;-84
2021/01/26 12:42:06;;;;;;;;;;;7.90;99.60;;;;;;5117874;27;19978;-85
2021/01/26 12:44:32;;;;;;;;;;;8.30;99.90;;;;;;5117813;27;19912;-85
2021/01/26 12:46:58;;;;;;;;;;;8.30;99.40;;;;;;5117521;27;19908;-84
2021/01/26 12:49:32;;;;;;;;;;;8.10;99.60;;;;;;5136572;27;20294;-86
2021/01/26 12:51:58;;;;;;;;;;;7.90;99.90;;;;;;5118323;27;19907;-86
2021/01/26 12:54:26;;;;;;;;;;;7.70;99.90;;;;;;5117963;27;19940;-85
2021/01/26 12:56:53;;;;;;;;;;;7.50;99.90;;;;;;5115054;27;19915;-84
2021/01/26 12:59:21;;;;;;;;;;;7.30;99.90;;;;;;5123698;27;19915;-86
2021/01/26 13:01:47;;;;;;;;;;;7.40;99.90;;;;;;5103360;28;19924;-85
2021/01/26 13:04:13;;;;;;;;;;;7.60;99.90;;;;;;5097290;28;19907;-85
2021/01/26 13:06:38;;;;;;;;;;;7.50;99.90;;;;;;5092905;28;19912;-84
2021/01/26 13:09:06;;;;;;;;;;;7.50;99.90;;;;;;5076123;28;19916;-86
2021/01/26 13:11:33;;;;;;;;;;;7.40;99.90;;;;;;5073399;28;19916;-84
2021/01/26 13:13:59;;;;;;;;;;;7.20;99.90;;;;;;5075220;28;19947;-84
2021/01/26 13:16:25;;;;;;;;;;;7.10;99.90;;;;;;5076156;28;19962;-84
2021/01/26 13:18:51;;;;;;;;;;;6.90;99.90;;;;;;5075725;28;19944;-84
2021/01/26 13:21:20;;;;;;;;;;;6.80;99.90;;;;;;5092489;28;19908;-85
2021/01/26 13:23:45;;;;;;;;;;;6.70;99.90;;;;;;5075508;28;20308;-85
2021/01/26 13:26:11;;;;;;;;;;;6.60;99.90;;;;;;5075675;28;20026;-85
2021/01/26 13:28:40;;;;;;;;;;;6.50;99.90;;;;;;5075343;28;20014;-83
2021/01/26 13:31:05;;;;;;;;;;;6.50;99.90;;;;;;5075342;28;19908;-84
2021/01/26 13:33:31;;;;;;;;;;;6.50;99.90;;;;;;5078440;28;19908;-84
2021/01/26 13:35:57;;;;;;;;;;;6.50;99.90;;;;;;5095007;28;19991;-84
2021/01/26 13:38:22;;;;;;;;;;;6.40;99.90;;;;;;5084515;27;19980;-84
2021/01/26 13:40:48;;;;;;;;;;;6.40;99.90;;;;;;5118918;27;20403;-84
2021/01/26 13:43:14;;;;;;;;;;;6.50;99.90;;;;;;5118024;27;20248;-86
2021/01/26 13:45:39;;;;;;;;;;;6.50;99.90;;;;;;5118045;27;19908;-85
2021/01/26 13:48:05;;;;;;;;;;;6.60;99.90;;;;;;5117910;27;19974;-84
2021/01/26 13:50:34;;;;;;;;;;;6.80;99.90;;;;;;5135806;27;19907;-85
2021/01/26 13:52:59;;;;;;;;;;;6.90;99.90;;;;;;5135534;27;19915;-85
2021/01/26 13:55:27;;;;;;;;;;;6.80;99.90;;;;;;5134952;27;19907;-85
2021/01/26 13:57:53;;;;;;;;;;;6.70;99.90;;;;;;5116481;27;19919;-84
2021/01/26 14:00:19;;;;;;;;;;;6.60;99.90;;;;;;5135003;27;19907;-83
2021/01/26 14:02:46;;;;;;;;;;;6.60;99.90;;;;;;5116844;27;19968;-84
2021/01/26 14:05:12;;;;;;;;;;;6.60;99.90;;;;;;5127545;27;19915;-84
2021/01/26 14:07:38;;;;;;;;;;;6.50;99.90;;;;;;5137263;27;19997;-85
2021/01/26 14:10:04;;;;;;;;;;;6.60;99.90;;;;;;5137024;27;19915;-85
2021/01/26 14:12:30;;;;;;;;;;;6.50;99.90;;;;;;5129456;28;20398;-84
2021/01/26 14:14:56;;;;;;;;;;;6.50;99.90;;;;;;5119462;27;19911;-83
2021/01/26 14:17:23;;;;;;;;;;;6.60;99.90;;;;;;5130546;28;19918;-84
2021/01/26 14:19:48;;;;;;;;;;;6.50;99.90;;;;;;5134165;27;19933;-83
2021/01/26 14:22:16;;;;;;;;;;;6.50;99.90;;;;;;5141049;27;19911;-83
2021/01/26 14:24:42;;;;;;;;;;;6.50;99.90;;;;;;5141121;27;19908;-84
2021/01/26 14:27:08;;;;;;;;;;;6.50;99.90;;;;;;5141124;27;19986;-83
2021/01/26 14:29:34;;;;;;;;;;;6.40;99.90;;;;;;5160268;27;19912;-84
2021/01/26 14:32:06;;;;;;;;;;;6.40;99.90;;;;;;5159614;27;19907;-84
2021/01/26 14:34:34;;;;;;;;;;;6.40;99.90;;;;;;5159526;27;19907;-85
2021/01/26 14:37:07;;;;;;;;;;;6.40;99.90;;;;;;5154485;27;20324;-85
2021/01/26 14:39:38;;;;;;;;;;;6.50;99.90;;;;;;5120189;27;19919;-85
2021/01/26 14:42:06;;;;;;;;;;;6.60;99.90;;;;;;5130621;27;19915;-84
2021/01/26 14:44:34;;;;;;;;;;;6.70;99.90;;;;;;5143468;27;19997;-85
2021/01/26 14:47:01;;;;;;;;;;;6.60;99.90;;;;;;5144181;27;19935;-84
2021/01/26 14:49:26;;;;;;;;;;;6.60;99.90;;;;;;5141293;27;20002;-85
2021/01/26 14:51:54;;;;;;;;;;;6.60;99.90;;;;;;5137723;27;20259;-85
2021/01/26 14:54:24;;;;;;;;;;;6.50;99.90;;;;;;5138049;27;19911;-85